Time;durP1;ratioP1;P1;durP2;ratioP2;P2;SDS_P1;SDS_P2;PMS_P1;PMS_P2;Temp;Humidity;BMP_temperature;BMP_pressure;BME280_temperature;BME280_humidity;BME280_pressure;Samples;Min_cycle;Max_cycle;Signal;HPM_P1;HPM_P2
2022/12/14 00:08:10;;;;;;;35.03;19.50;;;-5.90;99.90;;;;;;5103550;28;20225;-81
2022/12/14 00:14:18;;;;;;;34.30;18.67;;;-5.70;99.90;;;;;;5117048;28;20220;-80
2022/12/14 00:20:39;;;;;;;34.97;18.57;;;-5.90;99.90;;;;;;5087778;28;20228;-78
2022/12/14 00:30:23;;;;;;;32.07;18.03;;;-6.10;99.90;;;;;;5026333;28;20191;-77
2022/12/14 00:33:39;;;;;;;31.37;18.03;;;-6.20;99.90;;;;;;5050979;28;20210;-78
2022/12/14 00:36:09;;;;;;;30.50;17.10;;;-6.10;99.90;;;;;;5065374;28;20211;-79
2022/12/14 00:38:36;;;;;;;32.50;18.83;;;-6.20;99.90;;;;;;5064486;28;20275;-79
2022/12/14 00:59:12;;;;;;;32.30;18.13;;;-6.00;99.90;;;;;;5039386;28;20249;-81
2022/12/14 01:02:01;;;;;;;33.70;17.70;;;-6.00;99.90;;;;;;5048388;28;20233;-78
2022/12/14 01:04:33;;;;;;;31.50;18.63;;;-6.00;99.90;;;;;;5110899;28;20201;-80
2022/12/14 01:07:02;;;;;;;31.57;17.13;;;-5.80;99.90;;;;;;5118583;28;20327;-79
2022/12/14 01:19:40;;;;;;;30.70;15.83;;;-6.30;99.90;;;;;;5101284;28;20202;-80
2022/12/14 01:22:17;;;;;;;29.60;16.57;;;-6.40;99.90;;;;;;5086021;28;20206;-78
2022/12/14 01:24:46;;;;;;;34.53;18.97;;;-6.40;99.90;;;;;;5085763;28;20232;-79
2022/12/14 01:27:14;;;;;;;33.43;18.77;;;-6.30;99.90;;;;;;5085719;28;20230;-80
2022/12/14 01:29:41;;;;;;;29.87;17.90;;;-6.20;99.90;;;;;;5096243;28;20282;-79
2022/12/14 01:32:08;;;;;;;33.47;19.37;;;-6.10;99.90;;;;;;5104812;28;20281;-80
2022/12/14 01:34:35;;;;;;;32.73;18.47;;;-6.00;99.90;;;;;;5104659;28;20292;-79
2022/12/14 01:37:02;;;;;;;31.30;16.30;;;-6.00;99.90;;;;;;5104872;28;20289;-79
2022/12/14 01:39:30;;;;;;;32.90;18.60;;;-6.10;99.90;;;;;;5105932;28;20265;-79
2022/12/14 01:41:58;;;;;;;31.03;17.53;;;-6.20;99.90;;;;;;5105092;28;20269;-80
2022/12/14 01:44:51;;;;;;;31.03;17.47;;;-6.40;99.90;;;;;;5107118;28;20208;-80
2022/12/14 01:47:24;;;;;;;31.80;17.70;;;-6.30;99.90;;;;;;5105632;28;20307;-80
2022/12/14 01:49:55;;;;;;;30.97;17.33;;;-6.30;99.90;;;;;;5106729;28;20268;-80
2022/12/14 01:52:27;;;;;;;30.83;17.10;;;-6.40;99.90;;;;;;5105566;28;20285;-80
2022/12/14 01:55:01;;;;;;;29.07;16.97;;;-6.40;99.90;;;;;;5105842;28;20280;-80
2022/12/14 01:57:33;;;;;;;29.73;15.33;;;-6.30;99.90;;;;;;5105435;28;20268;-80
2022/12/14 02:00:01;;;;;;;30.53;17.10;;;-6.20;99.90;;;;;;5106358;28;20205;-80
2022/12/14 02:02:29;;;;;;;29.03;16.57;;;-6.20;99.90;;;;;;5105788;28;20205;-78
2022/12/14 02:04:59;;;;;;;26.13;15.10;;;-6.10;99.90;;;;;;5104538;28;20275;-79
2022/12/14 02:07:29;;;;;;;28.33;15.70;;;-6.20;99.90;;;;;;5105167;28;20285;-80
2022/12/14 02:10:01;;;;;;;29.97;15.70;;;-6.20;99.90;;;;;;5104834;28;20237;-79
2022/12/14 02:12:32;;;;;;;29.23;16.37;;;-6.10;99.90;;;;;;5101740;28;20222;-80
2022/12/14 02:15:00;;;;;;;32.87;15.80;;;-6.10;99.90;;;;;;5086377;28;20266;-80
2022/12/14 02:17:27;;;;;;;29.07;15.27;;;-6.20;99.90;;;;;;5088468;28;20337;-81
2022/12/14 02:19:56;;;;;;;30.40;16.10;;;-6.40;99.90;;;;;;5104422;28;20194;-80
2022/12/14 02:22:54;;;;;;;28.70;16.03;;;-6.30;99.90;;;;;;5113962;28;20201;-81
2022/12/14 02:26:03;;;;;;;29.10;16.73;;;-6.20;99.90;;;;;;5081622;28;20269;-80
2022/12/14 02:29:11;;;;;;;31.63;16.47;;;-6.20;99.90;;;;;;5105068;28;20240;-79
2022/12/14 02:31:46;;;;;;;31.50;16.43;;;-6.20;99.90;;;;;;5104549;28;20228;-78
2022/12/14 02:34:25;;;;;;;31.40;17.30;;;-6.30;99.90;;;;;;5105282;28;20205;-80
2022/12/14 02:37:00;;;;;;;28.77;16.30;;;-6.30;99.90;;;;;;5106168;28;20315;-79
2022/12/14 02:39:38;;;;;;;27.47;16.20;;;-6.30;99.90;;;;;;5105275;28;20258;-80
2022/12/14 02:42:08;;;;;;;31.83;17.53;;;-6.10;99.90;;;;;;5105071;28;20269;-78
2022/12/14 02:44:45;;;;;;;31.83;16.97;;;-6.20;99.90;;;;;;5105200;28;20288;-81
2022/12/14 02:47:16;;;;;;;31.73;16.97;;;-6.10;99.90;;;;;;5105820;28;20316;-80
2022/12/14 02:49:58;;;;;;;29.93;15.87;;;-6.30;99.90;;;;;;5108304;28;20225;-80
2022/12/14 02:52:33;;;;;;;28.43;15.30;;;-6.30;99.90;;;;;;5107917;28;20295;-80
2022/12/14 02:55:05;;;;;;;31.00;16.70;;;-6.40;99.90;;;;;;5110397;28;20225;-80
2022/12/14 02:57:38;;;;;;;28.97;16.20;;;-6.40;99.90;;;;;;5109347;28;20320;-80
2022/12/14 03:00:08;;;;;;;28.90;15.70;;;-6.50;99.90;;;;;;5110024;28;20200;-79
2022/12/14 03:02:36;;;;;;;27.33;14.80;;;-6.30;99.90;;;;;;5115077;28;20267;-80
2022/12/14 03:05:04;;;;;;;24.97;13.87;;;-6.20;99.90;;;;;;5097061;28;20257;-80
2022/12/14 03:07:36;;;;;;;29.23;15.03;;;-6.10;99.90;;;;;;5109798;28;20218;-80
2022/12/14 03:10:10;;;;;;;24.43;13.47;;;-6.00;99.90;;;;;;5109392;28;20258;-81
2022/12/14 03:12:40;;;;;;;25.37;14.20;;;-6.00;99.90;;;;;;5110192;28;20285;-80
2022/12/14 03:15:10;;;;;;;26.17;13.67;;;-5.90;99.90;;;;;;5110810;28;20288;-80
2022/12/14 03:17:39;;;;;;;25.50;13.37;;;-5.70;99.90;;;;;;5105660;28;20224;-80
2022/12/14 03:20:10;;;;;;;25.07;12.47;;;-5.80;99.90;;;;;;5106750;28;20193;-81
2022/12/14 03:22:41;;;;;;;22.73;12.47;;;-5.80;99.90;;;;;;5106043;28;20198;-78
2022/12/14 03:25:13;;;;;;;23.53;12.90;;;-5.90;99.90;;;;;;5107647;28;20318;-81
2022/12/14 03:27:46;;;;;;;21.87;12.13;;;-5.80;99.90;;;;;;5104648;28;20222;-81
2022/12/14 03:30:17;;;;;;;22.50;12.47;;;-5.80;99.90;;;;;;5089231;28;20297;-81
2022/12/14 03:32:48;;;;;;;22.60;12.47;;;-5.80;99.90;;;;;;5088263;28;20237;-81
2022/12/14 03:35:18;;;;;;;21.93;12.10;;;-5.80;99.90;;;;;;5089871;28;20292;-79
2022/12/14 03:37:49;;;;;;;21.87;12.07;;;-6.00;99.90;;;;;;5089333;28;20226;-79
2022/12/14 03:40:16;;;;;;;23.70;12.53;;;-6.00;99.90;;;;;;5089265;28;20274;-78
2022/12/14 03:42:56;;;;;;;22.47;11.30;;;-6.00;99.90;;;;;;5092889;28;20264;-80
2022/12/14 03:45:30;;;;;;;21.33;11.30;;;-6.00;99.90;;;;;;5109475;28;20298;-80
2022/12/14 03:48:07;;;;;;;24.40;12.90;;;-6.10;99.90;;;;;;5109089;28;20225;-81
2022/12/14 03:50:39;;;;;;;21.37;11.83;;;-6.10;99.90;;;;;;5107881;28;20296;-80
2022/12/14 03:53:11;;;;;;;24.27;12.37;;;-6.20;99.90;;;;;;5106638;28;20700;-79
2022/12/14 03:55:43;;;;;;;23.10;13.23;;;-6.20;99.90;;;;;;5108659;28;20269;-80
2022/12/14 03:58:26;;;;;;;23.10;12.33;;;-6.20;99.90;;;;;;5108541;28;20222;-79
2022/12/14 04:01:02;;;;;;;23.80;12.93;;;-6.30;99.90;;;;;;5106835;28;20300;-80
2022/12/14 04:03:41;;;;;;;25.60;13.63;;;-6.30;99.90;;;;;;5112154;28;20264;-79
2022/12/14 04:06:14;;;;;;;24.97;13.10;;;-6.30;99.90;;;;;;5092599;28;20332;-80
2022/12/14 04:08:45;;;;;;;27.53;13.43;;;-6.40;99.90;;;;;;5086278;28;20206;-80
2022/12/14 04:19:45;;;;;;;24.27;13.27;;;-6.60;99.90;;;;;;5086853;28;20205;-80
2022/12/14 04:22:16;;;;;;;24.53;13.37;;;-6.70;99.90;;;;;;5086882;28;20208;-78
2022/12/14 04:27:36;;;;;;;26.57;13.57;;;-6.60;99.90;;;;;;5087457;28;20274;-79
2022/12/14 04:30:03;;;;;;;24.47;13.03;;;-6.50;99.90;;;;;;5087081;28;20208;-80
2022/12/14 04:32:38;;;;;;;27.00;14.37;;;-6.60;99.90;;;;;;5086890;28;20283;-81
2022/12/14 04:35:11;;;;;;;25.87;13.23;;;-6.70;99.90;;;;;;5087432;28;20208;-79
2022/12/14 04:37:40;;;;;;;24.13;13.50;;;-6.80;99.90;;;;;;5087767;28;20290;-80
2022/12/14 04:40:11;;;;;;;25.87;13.73;;;-7.00;99.90;;;;;;5088027;28;20266;-78
2022/12/14 04:42:43;;;;;;;23.93;12.67;;;-6.90;99.90;;;;;;5087979;28;20258;-80
2022/12/14 04:45:14;;;;;;;24.17;13.00;;;-7.10;99.90;;;;;;5088060;28;20267;-80
2022/12/14 04:47:51;;;;;;;22.73;12.80;;;-7.20;99.90;;;;;;5088173;28;20285;-79
2022/12/14 04:50:25;;;;;;;26.73;12.83;;;-6.90;99.90;;;;;;5087615;28;20288;-80
2022/12/14 04:52:58;;;;;;;24.73;12.70;;;-6.80;99.90;;;;;;5088366;28;20312;-80
2022/12/14 04:55:29;;;;;;;23.80;13.47;;;-7.00;99.90;;;;;;5086807;28;20203;-80
2022/12/14 04:58:00;;;;;;;26.50;13.13;;;-7.00;99.90;;;;;;5087119;28;20230;-78
2022/12/14 05:00:30;;;;;;;27.60;14.03;;;-7.20;99.90;;;;;;5086858;28;20202;-78
2022/12/14 05:03:21;;;;;;;26.27;12.63;;;-7.20;99.90;;;;;;5086927;28;20206;-79
2022/12/14 05:06:02;;;;;;;24.40;12.50;;;-7.20;99.90;;;;;;5087060;28;20206;-78
2022/12/14 05:08:46;;;;;;;21.67;11.80;;;-7.10;99.90;;;;;;5087686;28;20289;-79
2022/12/14 05:11:22;;;;;;;24.33;13.50;;;-7.20;99.90;;;;;;5087474;28;20265;-79
2022/12/14 05:13:50;;;;;;;24.53;12.70;;;-7.30;99.90;;;;;;5087596;28;20274;-80
2022/12/14 05:16:18;;;;;;;23.20;13.33;;;-7.30;99.90;;;;;;5087392;28;20270;-78
2022/12/14 05:18:46;;;;;;;25.53;12.90;;;-7.10;99.90;;;;;;5088234;28;20261;-79
2022/12/14 05:21:45;;;;;;;22.23;12.20;;;-7.00;99.90;;;;;;5088122;28;20202;-79
2022/12/14 05:24:03;;;;;;;28.30;13.03;;;-7.20;99.90;;;;;;5085888;28;20557;-80
2022/12/14 05:26:31;;;;;;;24.93;12.53;;;-7.50;99.90;;;;;;5087576;28;20286;-80
2022/12/14 05:28:58;;;;;;;26.10;12.70;;;-7.50;99.90;;;;;;5087062;28;20234;-80
2022/12/14 05:31:25;;;;;;;26.07;13.47;;;-7.40;99.90;;;;;;5087123;28;20296;-81
2022/12/14 05:33:53;;;;;;;23.20;12.00;;;-7.40;99.90;;;;;;5088154;28;20269;-79
2022/12/14 05:36:20;;;;;;;22.93;12.40;;;-7.50;99.90;;;;;;5086570;28;20206;-79
2022/12/14 05:38:47;;;;;;;22.90;12.13;;;-7.40;99.90;;;;;;5083798;28;20233;-80
2022/12/14 05:41:14;;;;;;;21.13;12.33;;;-7.50;99.90;;;;;;5082753;28;20202;-80
2022/12/14 05:43:41;;;;;;;23.93;13.03;;;-7.50;99.90;;;;;;5083008;28;20209;-80
2022/12/14 05:46:10;;;;;;;25.77;13.70;;;-7.20;99.90;;;;;;5084354;28;20202;-79
2022/12/14 05:48:37;;;;;;;23.30;11.97;;;-7.60;99.90;;;;;;5084803;28;20199;-80
2022/12/14 05:51:09;;;;;;;24.17;12.93;;;-7.50;99.90;;;;;;5085451;28;20289;-78
2022/12/14 05:53:36;;;;;;;24.20;12.80;;;-7.50;99.90;;;;;;5085502;28;20694;-80
2022/12/14 05:56:06;;;;;;;24.43;13.20;;;-7.40;99.90;;;;;;5087340;28;20265;-81
2022/12/14 05:58:34;;;;;;;25.70;13.83;;;-7.30;99.90;;;;;;5101080;28;20190;-80
2022/12/14 06:01:01;;;;;;;26.23;13.63;;;-7.40;99.90;;;;;;5103224;28;20268;-81
2022/12/14 06:03:28;;;;;;;26.63;13.17;;;-7.20;99.90;;;;;;5119534;28;20330;-80
2022/12/14 06:06:00;;;;;;;23.93;13.20;;;-7.20;99.90;;;;;;5112469;28;20353;-80
2022/12/14 06:08:31;;;;;;;24.07;12.73;;;-7.30;99.90;;;;;;5109695;28;20217;-80
2022/12/14 06:11:02;;;;;;;25.00;13.27;;;-7.40;99.90;;;;;;5109597;28;20266;-78
2022/12/14 06:13:28;;;;;;;25.67;13.10;;;-7.60;99.90;;;;;;5100292;28;20308;-80
2022/12/14 06:15:55;;;;;;;22.67;12.50;;;-7.50;99.90;;;;;;5107945;28;20268;-80
2022/12/14 06:18:23;;;;;;;24.27;12.13;;;-7.70;99.90;;;;;;5106089;28;20289;-80
2022/12/14 06:20:49;;;;;;;25.77;13.10;;;-7.50;99.90;;;;;;5086143;28;20198;-81
2022/12/14 06:23:16;;;;;;;26.23;13.27;;;-7.60;99.90;;;;;;5086959;28;20270;-79
2022/12/14 06:25:44;;;;;;;25.40;13.03;;;-7.50;99.90;;;;;;5090872;28;20206;-79
2022/12/14 06:28:11;;;;;;;23.10;12.47;;;-7.40;99.90;;;;;;5089081;28;20293;-78
2022/12/14 06:30:38;;;;;;;25.37;12.90;;;-7.30;99.90;;;;;;5090287;28;20210;-79
2022/12/14 06:33:05;;;;;;;26.67;13.70;;;-7.30;99.90;;;;;;5089421;28;20294;-80
2022/12/14 06:35:31;;;;;;;22.63;11.93;;;-7.30;99.90;;;;;;5090109;28;20209;-79
2022/12/14 06:37:58;;;;;;;21.77;11.37;;;-7.30;99.90;;;;;;5090216;28;20316;-80
2022/12/14 06:40:25;;;;;;;24.40;13.27;;;-7.20;99.90;;;;;;5088513;28;20273;-81
2022/12/14 06:42:53;;;;;;;23.90;11.77;;;-7.30;99.90;;;;;;5089211;28;20285;-81
2022/12/14 06:45:20;;;;;;;21.37;11.13;;;-7.30;99.90;;;;;;5091033;28;20270;-80
2022/12/14 06:47:46;;;;;;;24.10;11.73;;;-7.30;99.90;;;;;;5088641;28;20226;-81
2022/12/14 06:50:13;;;;;;;25.43;11.57;;;-7.30;99.90;;;;;;5090137;28;20308;-81
2022/12/14 06:52:40;;;;;;;22.60;12.03;;;-7.40;99.90;;;;;;5090535;28;20317;-78
2022/12/14 06:55:07;;;;;;;24.67;12.80;;;-7.50;99.90;;;;;;5089271;28;20234;-81
2022/12/14 06:57:34;;;;;;;21.83;12.03;;;-7.60;99.90;;;;;;5097238;28;20280;-79
2022/12/14 07:00:03;;;;;;;21.97;11.83;;;-7.50;99.90;;;;;;5118893;28;20261;-81
2022/12/14 07:02:30;;;;;;;24.77;11.77;;;-7.60;99.90;;;;;;5113998;28;20296;-80
2022/12/14 07:04:57;;;;;;;23.40;11.40;;;-7.60;99.90;;;;;;5098098;28;20245;-77
2022/12/14 07:07:23;;;;;;;22.50;11.60;;;-7.70;99.90;;;;;;5088454;28;20220;-79
2022/12/14 07:09:50;;;;;;;25.23;12.10;;;-7.50;99.90;;;;;;5087992;28;20206;-82
2022/12/14 07:12:17;;;;;;;22.57;11.93;;;-6.80;99.90;;;;;;5088755;28;20224;-80
2022/12/14 07:14:44;;;;;;;24.47;12.27;;;-7.40;99.90;;;;;;5088937;28;20213;-78
2022/12/14 07:17:12;;;;;;;22.87;11.83;;;-7.30;99.90;;;;;;5089629;28;20295;-80
2022/12/14 07:19:39;;;;;;;25.13;12.00;;;-7.20;99.90;;;;;;5086666;28;20220;-80
2022/12/14 07:22:06;;;;;;;19.57;10.80;;;-7.30;99.90;;;;;;5087861;28;20274;-79
2022/12/14 07:24:32;;;;;;;22.03;11.27;;;-7.00;99.90;;;;;;5086821;28;20273;-80
2022/12/14 07:26:59;;;;;;;21.33;11.03;;;-7.50;99.90;;;;;;5088775;28;20222;-81
2022/12/14 07:29:26;;;;;;;20.60;10.60;;;-7.60;99.90;;;;;;5085830;28;20210;-80
2022/12/14 07:31:53;;;;;;;22.93;11.57;;;-7.70;99.90;;;;;;5089411;28;20206;-83
2022/12/14 07:34:21;;;;;;;21.17;10.63;;;-7.70;99.90;;;;;;5085043;28;20202;-80
2022/12/14 07:36:49;;;;;;;23.93;12.00;;;-7.70;99.90;;;;;;5086468;28;20301;-81
2022/12/14 07:39:16;;;;;;;21.73;10.97;;;-7.80;99.90;;;;;;5087557;28;20209;-80
2022/12/14 07:41:45;;;;;;;21.63;10.47;;;-7.80;99.90;;;;;;5086585;28;20202;-81
2022/12/14 07:44:13;;;;;;;20.30;11.13;;;-7.90;99.90;;;;;;5084959;28;20206;-81
2022/12/14 07:46:40;;;;;;;23.87;11.23;;;-7.80;99.90;;;;;;5094594;28;20281;-80
2022/12/14 07:49:08;;;;;;;22.30;10.83;;;-7.50;99.90;;;;;;5101982;28;20194;-80
2022/12/14 07:51:39;;;;;;;21.63;10.93;;;-7.40;99.90;;;;;;5092665;28;20273;-79
2022/12/14 07:54:07;;;;;;;20.83;10.60;;;-7.40;99.90;;;;;;5086432;28;20267;-80
2022/12/14 07:56:38;;;;;;;21.70;10.87;;;-7.60;99.90;;;;;;5092731;28;20332;-80
2022/12/14 07:59:07;;;;;;;25.27;11.60;;;-7.50;99.90;;;;;;5096116;28;20252;-79
2022/12/14 08:01:35;;;;;;;21.73;11.63;;;-7.20;99.90;;;;;;5100040;28;20261;-78
2022/12/14 08:04:05;;;;;;;24.33;12.37;;;-7.00;99.90;;;;;;5098035;28;20262;-79
2022/12/14 08:06:33;;;;;;;23.83;12.13;;;-7.20;99.90;;;;;;5100748;28;20285;-79
2022/12/14 08:09:01;;;;;;;25.40;11.93;;;-7.20;99.90;;;;;;5097482;28;20669;-80
2022/12/14 08:11:28;;;;;;;24.83;13.10;;;-7.30;99.90;;;;;;5091019;28;20210;-79
2022/12/14 08:13:55;;;;;;;24.40;12.57;;;-7.00;99.90;;;;;;5097204;28;20305;-80
2022/12/14 08:16:23;;;;;;;28.03;12.93;;;-6.90;99.90;;;;;;5097926;28;20208;-78
2022/12/14 08:18:52;;;;;;;26.30;12.97;;;-7.00;99.90;;;;;;5096148;28;20211;-80
2022/12/14 08:21:20;;;;;;;24.03;12.93;;;-7.00;99.90;;;;;;5092915;28;20201;-79
2022/12/14 08:23:48;;;;;;;22.63;11.77;;;-7.00;99.90;;;;;;5101283;28;20285;-77
2022/12/14 08:26:16;;;;;;;25.77;12.80;;;-6.90;99.90;;;;;;5085334;28;20768;-80
2022/12/14 08:28:43;;;;;;;22.40;11.60;;;-6.70;99.90;;;;;;5092612;28;20205;-79
2022/12/14 08:31:12;;;;;;;22.77;11.67;;;-6.60;99.90;;;;;;5089693;28;20202;-78
2022/12/14 08:33:40;;;;;;;24.80;12.47;;;-6.50;99.90;;;;;;5088957;28;20236;-80
2022/12/14 08:36:09;;;;;;;22.13;11.87;;;-6.60;99.90;;;;;;5090012;28;20197;-77
2022/12/14 08:38:37;;;;;;;24.40;12.70;;;-6.50;99.90;;;;;;5090815;28;20213;-79
2022/12/14 08:41:04;;;;;;;23.07;12.20;;;-6.50;99.90;;;;;;5089685;28;20209;-77
2022/12/14 08:43:33;;;;;;;21.27;11.50;;;-6.30;99.90;;;;;;5089096;28;20293;-80
2022/12/14 08:46:00;;;;;;;23.53;13.07;;;-6.20;99.90;;;;;;5080378;28;21027;-80
2022/12/14 08:48:27;;;;;;;24.63;12.83;;;-6.20;99.90;;;;;;5079169;28;20249;-81
2022/12/14 08:50:54;;;;;;;23.07;12.43;;;-6.30;99.90;;;;;;5084383;28;20202;-78
2022/12/14 08:53:20;;;;;;;26.87;13.00;;;-6.10;99.90;;;;;;5091075;28;20227;-81
2022/12/14 08:55:47;;;;;;;21.80;12.00;;;-6.10;99.90;;;;;;5090945;28;20212;-81
2022/12/14 08:58:14;;;;;;;25.17;13.27;;;-6.00;99.90;;;;;;5086864;28;20253;-80
2022/12/14 09:00:42;;;;;;;20.97;11.23;;;-5.90;99.90;;;;;;5091070;28;20202;-80
2022/12/14 09:03:10;;;;;;;24.60;11.90;;;-5.70;99.90;;;;;;5090133;28;20226;-80
2022/12/14 09:05:38;;;;;;;21.47;12.83;;;-5.70;99.90;;;;;;5096102;28;20266;-78
2022/12/14 09:08:05;;;;;;;24.47;13.40;;;-5.60;99.90;;;;;;5100509;28;20240;-80
2022/12/14 09:10:32;;;;;;;25.73;13.60;;;-5.50;99.90;;;;;;5100547;28;20212;-78
2022/12/14 09:12:59;;;;;;;23.20;11.97;;;-5.40;99.90;;;;;;5093354;28;20218;-81
2022/12/14 09:15:26;;;;;;;24.17;12.10;;;-5.40;99.90;;;;;;5090864;28;20205;-82
2022/12/14 09:17:54;;;;;;;26.10;14.83;;;-5.40;99.90;;;;;;5090187;28;20220;-80
2022/12/14 09:20:21;;;;;;;28.20;14.30;;;-5.50;99.90;;;;;;5088122;28;20202;-79
2022/12/14 09:22:50;;;;;;;30.57;16.67;;;-5.40;99.90;;;;;;5089345;28;20209;-80
2022/12/14 09:25:17;;;;;;;26.83;14.13;;;-5.30;99.90;;;;;;5090265;28;20210;-80
2022/12/14 09:27:44;;;;;;;27.33;13.90;;;-5.20;99.90;;;;;;5089142;28;20214;-79
2022/12/14 09:30:11;;;;;;;27.13;13.57;;;-5.10;99.90;;;;;;5090023;28;20214;-77
2022/12/14 09:32:39;;;;;;;28.30;14.33;;;-5.10;99.90;;;;;;5091493;28;20622;-81
2022/12/14 09:35:08;;;;;;;26.97;11.70;;;-5.10;99.90;;;;;;5089520;28;20213;-81
2022/12/14 09:37:34;;;;;;;22.20;12.57;;;-5.00;99.90;;;;;;5088923;28;20232;-78
2022/12/14 09:40:01;;;;;;;28.23;15.80;;;-5.00;99.90;;;;;;5076274;28;20206;-81
2022/12/14 09:42:43;;;;;;;29.83;13.67;;;-5.10;99.90;;;;;;5082023;28;20563;-81
2022/12/14 09:45:18;;;;;;;26.10;13.73;;;-5.00;99.90;;;;;;5084267;28;20232;-81
2022/12/14 09:47:54;;;;;;;27.43;12.67;;;-4.90;99.90;;;;;;5082589;28;20230;-78
2022/12/14 09:50:23;;;;;;;25.37;13.50;;;-4.80;99.90;;;;;;5085559;28;20212;-78
2022/12/14 09:52:52;;;;;;;27.40;13.43;;;-4.80;99.90;;;;;;5081674;28;20202;-81
2022/12/14 09:55:25;;;;;;;25.20;13.63;;;-4.80;99.90;;;;;;5083792;28;20305;-81
2022/12/14 09:57:55;;;;;;;27.23;14.10;;;-4.80;99.90;;;;;;5083760;28;20229;-79
2022/12/14 10:00:22;;;;;;;25.57;11.33;;;-4.70;99.90;;;;;;5080253;28;20217;-80
2022/12/14 10:03:02;;;;;;;24.13;12.03;;;-4.60;99.90;;;;;;5087441;28;20208;-83
2022/12/14 10:05:47;;;;;;;24.50;13.17;;;-4.50;99.90;;;;;;5075942;28;20206;-83
2022/12/14 10:08:23;;;;;;;22.77;12.20;;;-4.50;99.90;;;;;;5086940;28;20227;-82
2022/12/14 10:10:58;;;;;;;23.27;11.07;;;-4.50;99.90;;;;;;5070322;28;20587;-82
2022/12/14 10:13:36;;;;;;;23.30;11.37;;;-4.50;99.90;;;;;;5084463;28;20217;-82
2022/12/14 10:16:12;;;;;;;25.77;13.60;;;-4.40;99.90;;;;;;5083407;28;20678;-80
2022/12/14 10:19:01;;;;;;;27.27;13.00;;;-4.40;99.90;;;;;;5077883;28;20197;-81
2022/12/14 10:21:41;;;;;;;26.33;13.00;;;-4.30;99.90;;;;;;5078047;28;20560;-81
2022/12/14 10:24:17;;;;;;;22.80;10.97;;;-4.20;99.90;;;;;;5089098;28;20196;-80
2022/12/14 10:26:48;;;;;;;24.57;10.43;;;-4.40;99.90;;;;;;5088562;28;20735;-81
2022/12/14 10:29:21;;;;;;;21.97;11.20;;;-4.50;99.90;;;;;;5088600;28;20197;-81
2022/12/14 10:31:55;;;;;;;27.00;13.27;;;-4.50;99.90;;;;;;5087760;28;20205;-81
2022/12/14 10:34:28;;;;;;;25.40;11.93;;;-4.50;99.90;;;;;;5075163;28;20263;-78
2022/12/14 10:37:05;;;;;;;22.63;11.70;;;-4.60;99.90;;;;;;5087573;28;20304;-79
2022/12/14 10:39:43;;;;;;;24.80;12.13;;;-4.70;99.90;;;;;;5086396;28;20655;-80
2022/12/14 10:42:16;;;;;;;26.53;12.27;;;-4.70;99.90;;;;;;5072560;28;20212;-80
2022/12/14 10:44:55;;;;;;;21.57;10.67;;;-4.70;99.90;;;;;;5079945;28;20218;-81
2022/12/14 10:47:29;;;;;;;22.47;10.97;;;-4.80;99.90;;;;;;5087991;28;20846;-80
2022/12/14 10:50:03;;;;;;;21.43;10.20;;;-4.80;99.90;;;;;;5088097;28;20202;-80
2022/12/14 10:52:38;;;;;;;22.23;10.87;;;-4.80;99.90;;;;;;5086839;28;20722;-80
2022/12/14 10:55:16;;;;;;;22.83;11.93;;;-4.80;99.90;;;;;;5072862;28;20317;-81
2022/12/14 10:57:42;;;;;;;26.13;12.53;;;-4.80;99.90;;;;;;5075452;28;20638;-81
2022/12/14 11:00:13;;;;;;;23.90;11.37;;;-4.70;99.90;;;;;;5089194;28;20205;-79
2022/12/14 11:02:43;;;;;;;23.77;11.63;;;-4.60;99.90;;;;;;5084910;28;20547;-80
2022/12/14 11:05:22;;;;;;;27.07;13.33;;;-4.60;99.90;;;;;;5085039;28;20194;-80
2022/12/14 11:07:51;;;;;;;25.93;13.43;;;-4.50;99.90;;;;;;5072416;28;20225;-80
2022/12/14 11:10:19;;;;;;;26.03;13.00;;;-4.50;99.90;;;;;;5085364;28;20218;-79
2022/12/14 11:13:00;;;;;;;26.30;13.50;;;-4.40;99.90;;;;;;5088007;28;20666;-80
2022/12/14 11:15:30;;;;;;;27.33;14.43;;;-4.20;99.90;;;;;;5080964;28;20237;-79
2022/12/14 11:18:03;;;;;;;28.90;13.03;;;-4.10;99.90;;;;;;5085121;28;20225;-81
2022/12/14 11:20:31;;;;;;;26.10;13.07;;;-4.10;99.90;;;;;;5088468;28;20540;-80
2022/12/14 11:23:06;;;;;;;26.93;12.83;;;-4.00;99.90;;;;;;5084845;28;20212;-80
2022/12/14 11:25:39;;;;;;;29.77;15.93;;;-3.90;99.90;;;;;;5077626;28;20658;-80
2022/12/14 11:28:22;;;;;;;26.37;14.20;;;-3.80;99.90;;;;;;5089107;28;20363;-80
2022/12/14 11:30:57;;;;;;;29.40;13.30;;;-3.70;99.90;;;;;;5090244;28;20292;-78
2022/12/14 11:33:28;;;;;;;27.37;12.67;;;-3.60;99.90;;;;;;5081441;28;20443;-79
2022/12/14 11:35:55;;;;;;;26.37;14.43;;;-3.40;99.90;;;;;;5089859;28;20201;-80
2022/12/14 11:38:24;;;;;;;25.80;13.57;;;-3.30;99.90;;;;;;5090909;28;20285;-82
2022/12/14 11:40:51;;;;;;;25.87;13.47;;;-3.20;99.90;;;;;;5090663;28;20212;-78
2022/12/14 11:43:26;;;;;;;27.13;12.87;;;-3.20;99.90;;;;;;5091871;28;20205;-82
2022/12/14 11:45:55;;;;;;;25.87;12.50;;;-3.10;99.90;;;;;;5092662;28;20205;-79
2022/12/14 11:48:25;;;;;;;24.00;11.60;;;-3.10;99.90;;;;;;5091470;28;20228;-82
2022/12/14 11:50:54;;;;;;;25.30;12.17;;;-3.20;99.90;;;;;;5090264;28;20212;-78
2022/12/14 11:53:23;;;;;;;28.70;12.43;;;-3.20;99.90;;;;;;5081961;28;20301;-81
2022/12/14 11:55:57;;;;;;;26.20;13.07;;;-3.20;99.90;;;;;;5071517;28;20218;-80
2022/12/14 11:58:27;;;;;;;22.73;12.47;;;-3.00;99.90;;;;;;5109856;28;20509;-81
2022/12/14 12:00:59;;;;;;;25.37;12.57;;;-2.50;99.90;;;;;;5095421;28;20566;-78
2022/12/14 12:03:29;;;;;;;26.27;12.83;;;-2.20;99.90;;;;;;5090541;28;20220;-80
2022/12/14 12:06:01;;;;;;;26.63;12.30;;;-2.20;99.90;;;;;;5071256;28;20210;-82
2022/12/14 12:08:32;;;;;;;24.57;11.83;;;-2.10;99.90;;;;;;5070779;28;20233;-79
2022/12/14 12:11:02;;;;;;;24.80;11.33;;;-2.30;99.90;;;;;;5070573;28;20206;-80
2022/12/14 12:13:32;;;;;;;23.73;10.57;;;-2.50;99.90;;;;;;5071989;28;20214;-78
2022/12/14 12:16:01;;;;;;;25.13;11.50;;;-2.50;99.90;;;;;;5070571;28;20218;-78
2022/12/14 12:18:35;;;;;;;23.53;11.83;;;-2.60;99.90;;;;;;5069899;28;20230;-81
2022/12/14 12:21:08;;;;;;;24.97;11.80;;;-2.50;99.90;;;;;;5074558;28;20204;-79
2022/12/14 12:23:42;;;;;;;21.30;10.60;;;-2.30;99.90;;;;;;5083169;28;20658;-79
2022/12/14 12:26:16;;;;;;;24.33;10.73;;;-2.30;99.90;;;;;;5091714;28;20202;-78
2022/12/14 12:28:48;;;;;;;23.60;11.27;;;-2.30;99.90;;;;;;5083646;28;20220;-80
2022/12/14 12:31:21;;;;;;;24.63;11.73;;;-2.40;99.90;;;;;;5091302;28;20202;-78
2022/12/14 12:33:54;;;;;;;26.23;11.90;;;-2.20;99.90;;;;;;5077172;28;20689;-79
2022/12/14 12:36:22;;;;;;;25.87;11.43;;;-2.20;99.90;;;;;;5087380;28;20245;-81
2022/12/14 12:39:00;;;;;;;18.83;10.13;;;-2.50;99.90;;;;;;5083950;28;20209;-82
2022/12/14 12:41:34;;;;;;;20.87;11.53;;;-2.30;99.90;;;;;;5084221;28;20278;-82
2022/12/14 12:44:19;;;;;;;18.13;9.43;;;-1.20;99.90;;;;;;5089498;28;20210;-81
2022/12/14 12:46:58;;;;;;;20.67;9.73;;;-1.10;99.90;;;;;;5079656;28;20235;-81
2022/12/14 12:49:25;;;;;;;21.17;9.80;;;-1.40;99.90;;;;;;5091116;28;20691;-82
2022/12/14 12:51:57;;;;;;;20.33;10.10;;;-1.80;99.90;;;;;;5090796;28;20197;-83
2022/12/14 12:54:30;;;;;;;19.67;9.77;;;-1.90;99.90;;;;;;5090050;28;20240;-82
2022/12/14 12:57:00;;;;;;;21.93;10.40;;;-1.80;99.90;;;;;;5090086;28;20614;-82
2022/12/14 12:59:36;;;;;;;19.47;10.70;;;-2.10;99.90;;;;;;5091980;28;20692;-82
2022/12/14 13:02:17;;;;;;;20.57;9.90;;;-1.70;99.90;;;;;;5091900;28;20215;-82
2022/12/14 13:04:46;;;;;;;20.60;10.47;;;-1.60;99.90;;;;;;5092095;28;20244;-82
2022/12/14 13:07:28;;;;;;;21.40;9.63;;;-1.30;99.90;;;;;;5090884;28;20229;-81
2022/12/14 13:10:00;;;;;;;18.90;9.40;;;-1.40;99.90;;;;;;5091641;28;20215;-83
2022/12/14 13:12:33;;;;;;;18.60;9.60;;;-1.20;99.90;;;;;;5091514;28;20427;-83
2022/12/14 13:15:02;;;;;;;19.70;9.50;;;-1.10;99.90;;;;;;5091830;28;20236;-82
2022/12/14 13:17:37;;;;;;;20.77;9.40;;;-1.70;99.90;;;;;;5091108;28;20225;-82
2022/12/14 13:20:13;;;;;;;17.40;9.27;;;-2.10;99.90;;;;;;5090464;28;20604;-82
2022/12/14 13:22:41;;;;;;;16.77;8.27;;;-2.20;99.90;;;;;;5089409;28;20205;-82
2022/12/14 13:25:16;;;;;;;15.73;7.77;;;-2.20;99.90;;;;;;5089478;28;20674;-82
2022/12/14 13:28:10;;;;;;;18.47;8.67;;;-2.10;99.90;;;;;;5089817;28;20225;-82
2022/12/14 13:30:48;;;;;;;16.87;8.40;;;-2.30;99.90;;;;;;5074836;28;20216;-82
2022/12/14 13:33:44;;;;;;;16.63;7.93;;;-2.20;99.90;;;;;;5069517;28;20206;-81
2022/12/14 13:36:50;;;;;;;17.93;9.07;;;-2.10;99.90;;;;;;5069628;28;20305;-82
2022/12/14 13:39:33;;;;;;;15.73;8.17;;;-2.10;99.90;;;;;;5053765;28;20660;-82
2022/12/14 13:42:06;;;;;;;21.53;7.77;;;-2.30;99.90;;;;;;5067984;28;20210;-82
2022/12/14 13:44:49;;;;;;;18.30;7.40;;;-2.40;99.90;;;;;;5069728;28;20210;-83
2022/12/14 13:47:19;;;;;;;21.17;7.77;;;-2.50;99.90;;;;;;5069480;28;20766;-82
2022/12/14 13:49:52;;;;;;;16.40;7.03;;;-2.50;99.90;;;;;;5073341;28;20202;-82
2022/12/14 13:52:31;;;;;;;15.20;7.10;;;-2.50;99.90;;;;;;5070263;28;20210;-82